sensor_id;sensor_type;location;lat;lon;timestamp;pressure;altitude;pressure_sealevel;temperature;humidity
27202;BME280;14717;46.924;15.474;2023-04-30T00:00:41;97830.69;;;11.50;100.00
27202;BME280;14717;46.924;15.474;2023-04-30T00:03:07;97836.34;;;11.41;100.00
27202;BME280;14717;46.924;15.474;2023-04-30T00:05:32;97842.38;;;11.24;100.00
27202;BME280;14717;46.924;15.474;2023-04-30T00:07:58;97842.75;;;11.18;100.00
27202;BME280;14717;46.924;15.474;2023-04-30T00:10:23;97834.59;;;11.26;100.00
27202;BME280;14717;46.924;15.474;2023-04-30T00:12:48;97840.06;;;11.31;100.00
27202;BME280;14717;46.924;15.474;2023-04-30T00:15:14;97843.78;;;11.22;100.00
27202;BME280;14717;46.924;15.474;2023-04-30T00:17:39;97846.41;;;11.32;100.00
27202;BME280;14717;46.924;15.474;2023-04-30T00:20:05;97846.34;;;11.37;100.00
27202;BME280;14717;46.924;15.474;2023-04-30T00:22:31;97851.22;;;11.45;100.00
27202;BME280;14717;46.924;15.474;2023-04-30T00:24:57;97849.22;;;11.50;100.00
27202;BME280;14717;46.924;15.474;2023-04-30T00:27:23;97846.81;;;11.44;100.00
27202;BME280;14717;46.924;15.474;2023-04-30T00:29:48;97848.06;;;11.14;100.00
27202;BME280;14717;46.924;15.474;2023-04-30T00:32:13;97845.03;;;10.93;100.00
27202;BME280;14717;46.924;15.474;2023-04-30T00:34:39;97850.78;;;10.96;100.00
27202;BME280;14717;46.924;15.474;2023-04-30T00:37:05;97842.81;;;11.13;100.00
27202;BME280;14717;46.924;15.474;2023-04-30T00:39:30;97847.47;;;10.94;100.00
27202;BME280;14717;46.924;15.474;2023-04-30T00:41:55;97846.75;;;11.07;100.00
27202;BME280;14717;46.924;15.474;2023-04-30T00:44:21;97853.34;;;11.11;100.00
27202;BME280;14717;46.924;15.474;2023-04-30T00:46:46;97850.22;;;11.17;100.00
27202;BME280;14717;46.924;15.474;2023-04-30T00:49:11;97848.94;;;11.28;100.00
27202;BME280;14717;46.924;15.474;2023-04-30T00:51:39;97847.78;;;11.34;100.00
27202;BME280;14717;46.924;15.474;2023-04-30T00:54:05;97848.00;;;11.38;100.00
27202;BME280;14717;46.924;15.474;2023-04-30T00:56:31;97849.66;;;11.39;100.00
27202;BME280;14717;46.924;15.474;2023-04-30T00:58:57;97843.19;;;11.25;100.00
27202;BME280;14717;46.924;15.474;2023-04-30T01:01:24;97854.94;;;11.35;100.00
27202;BME280;14717;46.924;15.474;2023-04-30T01:03:50;97853.97;;;11.26;100.00
27202;BME280;14717;46.924;15.474;2023-04-30T01:06:15;97851.69;;;11.10;100.00
27202;BME280;14717;46.924;15.474;2023-04-30T01:08:41;97849.53;;;11.25;100.00
27202;BME280;14717;46.924;15.474;2023-04-30T01:11:17;97852.47;;;11.34;100.00
27202;BME280;14717;46.924;15.474;2023-04-30T01:14:09;97846.13;;;11.33;100.00
27202;BME280;14717;46.924;15.474;2023-04-30T01:16:43;97851.50;;;11.43;100.00
27202;BME280;14717;46.924;15.474;2023-04-30T01:19:37;97857.16;;;11.56;100.00
27202;BME280;14717;46.924;15.474;2023-04-30T01:22:08;97851.25;;;11.63;100.00
27202;BME280;14717;46.924;15.474;2023-04-30T01:24:44;97851.38;;;11.53;100.00
27202;BME280;14717;46.924;15.474;2023-04-30T01:29:40;97853.72;;;11.64;100.00
27202;BME280;14717;46.924;15.474;2023-04-30T01:32:06;97856.34;;;11.56;100.00
27202;BME280;14717;46.924;15.474;2023-04-30T01:34:32;97865.69;;;11.37;100.00
27202;BME280;14717;46.924;15.474;2023-04-30T01:42:22;97864.84;;;11.59;100.00
27202;BME280;14717;46.924;15.474;2023-04-30T01:47:37;97866.38;;;11.52;100.00
27202;BME280;14717;46.924;15.474;2023-04-30T01:52:49;97869.28;;;11.60;100.00
27202;BME280;14717;46.924;15.474;2023-04-30T01:55:23;97878.53;;;11.51;100.00
27202;BME280;14717;46.924;15.474;2023-04-30T01:57:57;97886.13;;;11.41;100.00
27202;BME280;14717;46.924;15.474;2023-04-30T02:00:27;97884.97;;;11.47;100.00
27202;BME280;14717;46.924;15.474;2023-04-30T02:02:53;97876.59;;;11.51;100.00
27202;BME280;14717;46.924;15.474;2023-04-30T02:05:18;97883.84;;;11.48;100.00
27202;BME280;14717;46.924;15.474;2023-04-30T02:07:46;97875.25;;;11.49;100.00
27202;BME280;14717;46.924;15.474;2023-04-30T02:10:12;97879.66;;;11.50;100.00
27202;BME280;14717;46.924;15.474;2023-04-30T02:12:38;97881.31;;;11.51;100.00
27202;BME280;14717;46.924;15.474;2023-04-30T02:15:03;97878.31;;;11.66;100.00
27202;BME280;14717;46.924;15.474;2023-04-30T02:17:29;97888.56;;;11.65;100.00
27202;BME280;14717;46.924;15.474;2023-04-30T02:19:56;97878.53;;;11.51;100.00
27202;BME280;14717;46.924;15.474;2023-04-30T02:22:21;97880.72;;;11.54;100.00
27202;BME280;14717;46.924;15.474;2023-04-30T02:24:47;97890.22;;;11.43;100.00
27202;BME280;14717;46.924;15.474;2023-04-30T02:27:12;97893.34;;;11.37;100.00
27202;BME280;14717;46.924;15.474;2023-04-30T02:29:37;97892.47;;;11.41;100.00
27202;BME280;14717;46.924;15.474;2023-04-30T02:32:03;97896.13;;;11.37;100.00
27202;BME280;14717;46.924;15.474;2023-04-30T02:34:28;97906.09;;;11.38;100.00
27202;BME280;14717;46.924;15.474;2023-04-30T02:36:54;97901.06;;;11.40;100.00
27202;BME280;14717;46.924;15.474;2023-04-30T02:39:19;97906.28;;;11.46;100.00
27202;BME280;14717;46.924;15.474;2023-04-30T02:41:45;97900.38;;;11.52;100.00
27202;BME280;14717;46.924;15.474;2023-04-30T02:44:11;97904.34;;;11.42;100.00
27202;BME280;14717;46.924;15.474;2023-04-30T02:46:36;97905.16;;;11.47;100.00
27202;BME280;14717;46.924;15.474;2023-04-30T02:49:02;97918.75;;;11.44;100.00
27202;BME280;14717;46.924;15.474;2023-04-30T02:51:27;97909.28;;;11.45;100.00
27202;BME280;14717;46.924;15.474;2023-04-30T02:53:53;97915.38;;;11.47;100.00
27202;BME280;14717;46.924;15.474;2023-04-30T02:56:18;97916.09;;;11.57;100.00
27202;BME280;14717;46.924;15.474;2023-04-30T02:58:44;97912.34;;;11.66;100.00
27202;BME280;14717;46.924;15.474;2023-04-30T03:01:09;97917.72;;;11.76;100.00
27202;BME280;14717;46.924;15.474;2023-04-30T03:03:35;97925.97;;;11.81;100.00
27202;BME280;14717;46.924;15.474;2023-04-30T03:06:00;97910.19;;;11.82;100.00
27202;BME280;14717;46.924;15.474;2023-04-30T03:08:26;97913.47;;;11.84;100.00
27202;BME280;14717;46.924;15.474;2023-04-30T03:10:51;97909.34;;;11.81;100.00
27202;BME280;14717;46.924;15.474;2023-04-30T03:13:17;97910.78;;;11.79;100.00
27202;BME280;14717;46.924;15.474;2023-04-30T03:15:42;97916.31;;;11.79;100.00
27202;BME280;14717;46.924;15.474;2023-04-30T03:18:09;97919.31;;;11.82;100.00
27202;BME280;14717;46.924;15.474;2023-04-30T03:20:34;97914.16;;;11.76;100.00
27202;BME280;14717;46.924;15.474;2023-04-30T03:23:00;97913.63;;;11.74;100.00
27202;BME280;14717;46.924;15.474;2023-04-30T03:25:25;97918.88;;;11.75;100.00
27202;BME280;14717;46.924;15.474;2023-04-30T03:27:50;97913.84;;;11.77;100.00
27202;BME280;14717;46.924;15.474;2023-04-30T03:30:16;97915.59;;;11.73;100.00
27202;BME280;14717;46.924;15.474;2023-04-30T03:32:41;97915.94;;;11.85;100.00
27202;BME280;14717;46.924;15.474;2023-04-30T03:35:07;97920.78;;;11.75;100.00
27202;BME280;14717;46.924;15.474;2023-04-30T03:37:32;97914.44;;;11.74;100.00
27202;BME280;14717;46.924;15.474;2023-04-30T03:39:58;97922.91;;;11.83;100.00
27202;BME280;14717;46.924;15.474;2023-04-30T03:42:23;97918.34;;;11.91;100.00
27202;BME280;14717;46.924;15.474;2023-04-30T03:44:49;97914.44;;;11.74;100.00
27202;BME280;14717;46.924;15.474;2023-04-30T03:47:16;97925.28;;;11.52;100.00
27202;BME280;14717;46.924;15.474;2023-04-30T03:49:41;97925.34;;;11.48;100.00
27202;BME280;14717;46.924;15.474;2023-04-30T03:52:06;97916.31;;;11.60;100.00
27202;BME280;14717;46.924;15.474;2023-04-30T03:54:32;97925.28;;;11.71;100.00
27202;BME280;14717;46.924;15.474;2023-04-30T03:56:58;97919.38;;;11.59;100.00
27202;BME280;14717;46.924;15.474;2023-04-30T03:59:24;97925.44;;;11.61;100.00
27202;BME280;14717;46.924;15.474;2023-04-30T04:01:50;97926.03;;;11.58;100.00
27202;BME280;14717;46.924;15.474;2023-04-30T04:04:16;97935.31;;;11.67;100.00
27202;BME280;14717;46.924;15.474;2023-04-30T04:06:42;97933.38;;;11.67;100.00
27202;BME280;14717;46.924;15.474;2023-04-30T04:09:07;97938.59;;;11.69;100.00
27202;BME280;14717;46.924;15.474;2023-04-30T04:11:32;97943.31;;;11.68;100.00
27202;BME280;14717;46.924;15.474;2023-04-30T04:13:58;97943.84;;;11.70;100.00
27202;BME280;14717;46.924;15.474;2023-04-30T04:16:24;97939.50;;;11.64;100.00
27202;BME280;14717;46.924;15.474;2023-04-30T04:18:50;97952.97;;;11.71;100.00
27202;BME280;14717;46.924;15.474;2023-04-30T04:21:15;97955.59;;;11.81;100.00
27202;BME280;14717;46.924;15.474;2023-04-30T04:23:41;97957.19;;;11.87;100.00
27202;BME280;14717;46.924;15.474;2023-04-30T04:26:06;97968.69;;;11.93;100.00
27202;BME280;14717;46.924;15.474;2023-04-30T04:28:31;97966.16;;;11.97;100.00
27202;BME280;14717;46.924;15.474;2023-04-30T04:30:57;97973.63;;;11.96;100.00
27202;BME280;14717;46.924;15.474;2023-04-30T04:33:22;97978.56;;;11.99;100.00
27202;BME280;14717;46.924;15.474;2023-04-30T04:35:47;97981.88;;;12.01;100.00
27202;BME280;14717;46.924;15.474;2023-04-30T04:38:13;97983.28;;;11.99;100.00
27202;BME280;14717;46.924;15.474;2023-04-30T04:40:38;97988.88;;;11.94;100.00
27202;BME280;14717;46.924;15.474;2023-04-30T04:43:04;97983.06;;;11.95;100.00
27202;BME280;14717;46.924;15.474;2023-04-30T04:45:29;97999.38;;;11.97;100.00
27202;BME280;14717;46.924;15.474;2023-04-30T04:47:55;97986.03;;;11.99;100.00
27202;BME280;14717;46.924;15.474;2023-04-30T04:50:20;97993.47;;;11.85;100.00
27202;BME280;14717;46.924;15.474;2023-04-30T04:52:46;98004.78;;;11.65;100.00
27202;BME280;14717;46.924;15.474;2023-04-30T04:55:12;98001.88;;;11.57;100.00
27202;BME280;14717;46.924;15.474;2023-04-30T04:57:38;98009.66;;;11.50;100.00
27202;BME280;14717;46.924;15.474;2023-04-30T05:00:04;98009.94;;;11.53;100.00
27202;BME280;14717;46.924;15.474;2023-04-30T05:02:32;98004.00;;;11.60;100.00
27202;BME280;14717;46.924;15.474;2023-04-30T05:04:57;98005.53;;;11.71;100.00
27202;BME280;14717;46.924;15.474;2023-04-30T05:07:23;98005.78;;;11.74;100.00
27202;BME280;14717;46.924;15.474;2023-04-30T05:09:48;98012.06;;;11.80;100.00
27202;BME280;14717;46.924;15.474;2023-04-30T05:12:14;97998.69;;;11.87;100.00
27202;BME280;14717;46.924;15.474;2023-04-30T05:14:39;97994.03;;;11.82;100.00
27202;BME280;14717;46.924;15.474;2023-04-30T05:17:05;97988.72;;;11.86;100.00
27202;BME280;14717;46.924;15.474;2023-04-30T05:19:31;97986.19;;;11.89;100.00
27202;BME280;14717;46.924;15.474;2023-04-30T05:21:56;97986.56;;;12.01;100.00
27202;BME280;14717;46.924;15.474;2023-04-30T05:24:22;97987.25;;;12.11;100.00
27202;BME280;14717;46.924;15.474;2023-04-30T05:26:47;97999.09;;;12.17;100.00
27202;BME280;14717;46.924;15.474;2023-04-30T05:29:13;98003.44;;;12.23;100.00
27202;BME280;14717;46.924;15.474;2023-04-30T05:31:38;98013.28;;;12.29;100.00
27202;BME280;14717;46.924;15.474;2023-04-30T05:34:04;98017.13;;;12.32;100.00
27202;BME280;14717;46.924;15.474;2023-04-30T05:36:29;98024.22;;;12.20;100.00
27202;BME280;14717;46.924;15.474;2023-04-30T05:38:55;98024.09;;;12.30;100.00
27202;BME280;14717;46.924;15.474;2023-04-30T05:41:20;98018.09;;;12.41;100.00
27202;BME280;14717;46.924;15.474;2023-04-30T05:43:46;98011.66;;;12.46;100.00
27202;BME280;14717;46.924;15.474;2023-04-30T05:46:12;98021.69;;;12.24;100.00
27202;BME280;14717;46.924;15.474;2023-04-30T05:48:37;98023.41;;;12.20;100.00
27202;BME280;14717;46.924;15.474;2023-04-30T05:51:03;98024.91;;;12.12;100.00
27202;BME280;14717;46.924;15.474;2023-04-30T05:53:30;98017.44;;;12.31;100.00
27202;BME280;14717;46.924;15.474;2023-04-30T05:55:55;98015.53;;;12.45;100.00
27202;BME280;14717;46.924;15.474;2023-04-30T05:58:21;98018.06;;;12.60;100.00
27202;BME280;14717;46.924;15.474;2023-04-30T06:00:50;98022.28;;;12.57;100.00
27202;BME280;14717;46.924;15.474;2023-04-30T06:03:19;98026.50;;;12.68;100.00
27202;BME280;14717;46.924;15.474;2023-04-30T06:05:46;98025.78;;;12.81;100.00
27202;BME280;14717;46.924;15.474;2023-04-30T06:08:11;98024.13;;;12.80;100.00
27202;BME280;14717;46.924;15.474;2023-04-30T06:10:37;98035.06;;;12.90;100.00
27202;BME280;14717;46.924;15.474;2023-04-30T06:13:03;98036.28;;;12.84;100.00
27202;BME280;14717;46.924;15.474;2023-04-30T06:15:29;98023.13;;;12.89;100.00
27202;BME280;14717;46.924;15.474;2023-04-30T06:17:54;98030.59;;;13.20;99.05
27202;BME280;14717;46.924;15.474;2023-04-30T06:20:20;98026.94;;;13.38;98.03
27202;BME280;14717;46.924;15.474;2023-04-30T06:22:45;98030.78;;;13.56;97.27
27202;BME280;14717;46.924;15.474;2023-04-30T06:25:10;98034.38;;;13.56;96.63
27202;BME280;14717;46.924;15.474;2023-04-30T06:27:36;98039.50;;;13.62;96.95
27202;BME280;14717;46.924;15.474;2023-04-30T06:30:01;98046.09;;;13.53;97.02
27202;BME280;14717;46.924;15.474;2023-04-30T06:32:27;98047.09;;;13.57;97.82
27202;BME280;14717;46.924;15.474;2023-04-30T06:34:52;98047.28;;;13.47;96.98
27202;BME280;14717;46.924;15.474;2023-04-30T06:37:17;98049.47;;;13.50;98.24
27202;BME280;14717;46.924;15.474;2023-04-30T06:39:43;98041.13;;;13.63;97.57
27202;BME280;14717;46.924;15.474;2023-04-30T06:42:08;98043.72;;;13.73;97.92
27202;BME280;14717;46.924;15.474;2023-04-30T06:44:34;98052.69;;;13.97;97.89
27202;BME280;14717;46.924;15.474;2023-04-30T06:46:59;98047.53;;;13.91;96.83
27202;BME280;14717;46.924;15.474;2023-04-30T06:49:25;98056.78;;;14.13;99.04
27202;BME280;14717;46.924;15.474;2023-04-30T06:51:50;98060.06;;;14.42;96.68
27202;BME280;14717;46.924;15.474;2023-04-30T06:54:15;98053.91;;;14.66;96.08
27202;BME280;14717;46.924;15.474;2023-04-30T06:56:41;98049.69;;;14.55;95.13
27202;BME280;14717;46.924;15.474;2023-04-30T06:59:08;98058.13;;;14.64;94.34
27202;BME280;14717;46.924;15.474;2023-04-30T07:01:33;98051.56;;;15.03;95.07
27202;BME280;14717;46.924;15.474;2023-04-30T07:04:00;98045.44;;;15.15;91.54
27202;BME280;14717;46.924;15.474;2023-04-30T07:06:25;98061.06;;;15.46;92.61
27202;BME280;14717;46.924;15.474;2023-04-30T07:08:51;98053.84;;;15.45;90.30
27202;BME280;14717;46.924;15.474;2023-04-30T07:11:16;98057.50;;;15.24;89.40
27202;BME280;14717;46.924;15.474;2023-04-30T07:13:41;98052.25;;;15.22;89.95
27202;BME280;14717;46.924;15.474;2023-04-30T07:16:07;98058.63;;;15.23;88.64
27202;BME280;14717;46.924;15.474;2023-04-30T07:18:34;98058.28;;;15.02;88.72
27202;BME280;14717;46.924;15.474;2023-04-30T07:21:00;98056.44;;;14.98;89.40
27202;BME280;14717;46.924;15.474;2023-04-30T07:23:25;98052.41;;;14.82;89.72
27202;BME280;14717;46.924;15.474;2023-04-30T07:25:50;98043.56;;;15.02;90.86
27202;BME280;14717;46.924;15.474;2023-04-30T07:28:16;98047.47;;;15.23;89.91
27202;BME280;14717;46.924;15.474;2023-04-30T07:30:41;98048.31;;;15.23;89.06
27202;BME280;14717;46.924;15.474;2023-04-30T07:33:06;98053.56;;;15.25;89.12
27202;BME280;14717;46.924;15.474;2023-04-30T07:35:33;98057.44;;;15.15;87.63
27202;BME280;14717;46.924;15.474;2023-04-30T07:37:58;98056.31;;;15.46;87.49
27202;BME280;14717;46.924;15.474;2023-04-30T07:40:23;98061.84;;;15.38;87.25
27202;BME280;14717;46.924;15.474;2023-04-30T07:42:49;98057.94;;;15.17;87.85
27202;BME280;14717;46.924;15.474;2023-04-30T07:45:14;98055.03;;;15.22;91.34
27202;BME280;14717;46.924;15.474;2023-04-30T07:47:39;98064.41;;;15.34;89.89
27202;BME280;14717;46.924;15.474;2023-04-30T07:50:05;98065.94;;;15.40;88.80
27202;BME280;14717;46.924;15.474;2023-04-30T07:52:30;98065.59;;;15.64;89.00
27202;BME280;14717;46.924;15.474;2023-04-30T07:54:56;98068.91;;;15.74;86.53
27202;BME280;14717;46.924;15.474;2023-04-30T07:57:21;98068.25;;;16.07;86.15
27202;BME280;14717;46.924;15.474;2023-04-30T07:59:46;98072.63;;;16.38;82.43
27202;BME280;14717;46.924;15.474;2023-04-30T08:02:12;98073.75;;;16.29;83.85
27202;BME280;14717;46.924;15.474;2023-04-30T08:04:37;98069.56;;;16.18;82.86
27202;BME280;14717;46.924;15.474;2023-04-30T08:07:03;98073.81;;;16.07;82.66
27202;BME280;14717;46.924;15.474;2023-04-30T08:09:29;98076.28;;;15.70;81.17
27202;BME280;14717;46.924;15.474;2023-04-30T08:11:54;98077.59;;;15.73;81.99
27202;BME280;14717;46.924;15.474;2023-04-30T08:14:19;98092.09;;;15.91;81.17
27202;BME280;14717;46.924;15.474;2023-04-30T08:16:45;98084.38;;;15.88;80.93
27202;BME280;14717;46.924;15.474;2023-04-30T08:19:11;98082.50;;;16.06;80.80
27202;BME280;14717;46.924;15.474;2023-04-30T08:21:36;98087.81;;;15.85;79.54
27202;BME280;14717;46.924;15.474;2023-04-30T08:24:02;98087.91;;;16.02;80.17
27202;BME280;14717;46.924;15.474;2023-04-30T08:26:28;98085.41;;;15.92;80.15
27202;BME280;14717;46.924;15.474;2023-04-30T08:28:53;98086.31;;;16.18;80.41
27202;BME280;14717;46.924;15.474;2023-04-30T08:31:20;98083.03;;;16.16;81.28
27202;BME280;14717;46.924;15.474;2023-04-30T08:33:46;98089.38;;;16.08;82.34
27202;BME280;14717;46.924;15.474;2023-04-30T08:36:11;98088.72;;;16.03;82.25
27202;BME280;14717;46.924;15.474;2023-04-30T08:38:37;98092.00;;;16.43;79.82
27202;BME280;14717;46.924;15.474;2023-04-30T08:41:08;98089.72;;;16.54;79.54
27202;BME280;14717;46.924;15.474;2023-04-30T08:43:37;98093.75;;;16.31;76.28
27202;BME280;14717;46.924;15.474;2023-04-30T08:46:04;98091.34;;;16.46;78.52
27202;BME280;14717;46.924;15.474;2023-04-30T08:48:30;98087.47;;;17.14;77.14
27202;BME280;14717;46.924;15.474;2023-04-30T08:51:03;98098.97;;;17.30;74.58
27202;BME280;14717;46.924;15.474;2023-04-30T08:53:30;98079.56;;;17.42;74.81
27202;BME280;14717;46.924;15.474;2023-04-30T08:55:56;98084.75;;;17.85;71.92
27202;BME280;14717;46.924;15.474;2023-04-30T08:58:22;98083.00;;;17.64;72.79
27202;BME280;14717;46.924;15.474;2023-04-30T09:00:47;98091.88;;;17.57;73.28
27202;BME280;14717;46.924;15.474;2023-04-30T09:03:12;98090.41;;;17.51;72.45
27202;BME280;14717;46.924;15.474;2023-04-30T09:05:38;98092.25;;;17.31;73.04
27202;BME280;14717;46.924;15.474;2023-04-30T09:08:05;98094.06;;;17.27;73.90
27202;BME280;14717;46.924;15.474;2023-04-30T09:10:34;98082.38;;;17.16;73.29
27202;BME280;14717;46.924;15.474;2023-04-30T09:13:05;98089.94;;;17.16;72.14
27202;BME280;14717;46.924;15.474;2023-04-30T09:15:33;98093.72;;;17.03;73.10
27202;BME280;14717;46.924;15.474;2023-04-30T09:18:11;98094.25;;;17.30;72.81
27202;BME280;14717;46.924;15.474;2023-04-30T09:21:01;98095.38;;;17.38;70.33
27202;BME280;14717;46.924;15.474;2023-04-30T09:23:29;98096.03;;;17.35;67.21
27202;BME280;14717;46.924;15.474;2023-04-30T09:25:55;98090.94;;;17.45;68.98
27202;BME280;14717;46.924;15.474;2023-04-30T09:28:21;98092.75;;;17.33;68.16
27202;BME280;14717;46.924;15.474;2023-04-30T09:30:55;98094.69;;;17.07;70.12
27202;BME280;14717;46.924;15.474;2023-04-30T09:33:21;98096.00;;;17.18;68.97
27202;BME280;14717;46.924;15.474;2023-04-30T09:35:47;98098.47;;;17.36;68.95
27202;BME280;14717;46.924;15.474;2023-04-30T09:38:29;98083.34;;;18.08;67.49
27202;BME280;14717;46.924;15.474;2023-04-30T09:40:57;98075.22;;;18.23;64.35
27202;BME280;14717;46.924;15.474;2023-04-30T09:43:23;98080.03;;;18.23;66.11
27202;BME280;14717;46.924;15.474;2023-04-30T09:45:48;98076.22;;;18.19;63.59
27202;BME280;14717;46.924;15.474;2023-04-30T09:48:19;98084.81;;;18.14;63.38
27202;BME280;14717;46.924;15.474;2023-04-30T09:50:45;98073.94;;;18.49;63.48
27202;BME280;14717;46.924;15.474;2023-04-30T09:53:12;98076.81;;;18.61;63.84
27202;BME280;14717;46.924;15.474;2023-04-30T09:55:42;98071.47;;;18.48;63.96
27202;BME280;14717;46.924;15.474;2023-04-30T09:58:11;98073.50;;;18.39;62.72
27202;BME280;14717;46.924;15.474;2023-04-30T10:00:38;98070.38;;;18.40;62.50
27202;BME280;14717;46.924;15.474;2023-04-30T10:03:07;98062.34;;;18.79;63.71
27202;BME280;14717;46.924;15.474;2023-04-30T10:05:36;98063.00;;;18.85;62.47
27202;BME280;14717;46.924;15.474;2023-04-30T10:08:06;98055.63;;;19.01;62.98
27202;BME280;14717;46.924;15.474;2023-04-30T10:10:38;98062.22;;;19.05;62.83
27202;BME280;14717;46.924;15.474;2023-04-30T10:13:09;98061.69;;;18.62;60.57
27202;BME280;14717;46.924;15.474;2023-04-30T10:15:42;98051.75;;;19.14;59.98
27202;BME280;14717;46.924;15.474;2023-04-30T10:18:13;98047.75;;;19.67;59.08
27202;BME280;14717;46.924;15.474;2023-04-30T10:20:41;98051.69;;;19.34;57.77
27202;BME280;14717;46.924;15.474;2023-04-30T10:23:09;98049.00;;;19.25;58.11
27202;BME280;14717;46.924;15.474;2023-04-30T10:25:37;98051.25;;;18.91;61.16
27202;BME280;14717;46.924;15.474;2023-04-30T10:28:03;98045.41;;;18.56;57.74
27202;BME280;14717;46.924;15.474;2023-04-30T10:30:30;98050.59;;;18.45;54.81
27202;BME280;14717;46.924;15.474;2023-04-30T10:35:37;98045.56;;;18.59;56.99
27202;BME280;14717;46.924;15.474;2023-04-30T10:38:31;98052.22;;;18.46;56.86
27202;BME280;14717;46.924;15.474;2023-04-30T10:41:00;98051.00;;;18.35;58.19
27202;BME280;14717;46.924;15.474;2023-04-30T10:43:29;98042.47;;;18.24;55.62
27202;BME280;14717;46.924;15.474;2023-04-30T10:45:56;98036.13;;;18.15;56.09
27202;BME280;14717;46.924;15.474;2023-04-30T10:48:25;98028.69;;;18.19;53.73
27202;BME280;14717;46.924;15.474;2023-04-30T10:50:56;98026.41;;;18.41;54.61
27202;BME280;14717;46.924;15.474;2023-04-30T10:53:22;98028.69;;;18.88;53.26
27202;BME280;14717;46.924;15.474;2023-04-30T10:55:59;98028.28;;;19.50;50.55
27202;BME280;14717;46.924;15.474;2023-04-30T10:58:34;98025.94;;;19.08;50.77
27202;BME280;14717;46.924;15.474;2023-04-30T11:01:12;98021.91;;;19.18;50.14
27202;BME280;14717;46.924;15.474;2023-04-30T11:04:05;98017.25;;;19.33;50.05
27202;BME280;14717;46.924;15.474;2023-04-30T11:07:08;98010.69;;;19.62;48.70
27202;BME280;14717;46.924;15.474;2023-04-30T11:09:38;98013.16;;;19.63;47.90
27202;BME280;14717;46.924;15.474;2023-04-30T11:12:16;98012.25;;;19.07;49.54
27202;BME280;14717;46.924;15.474;2023-04-30T11:14:44;98020.25;;;19.17;49.41
27202;BME280;14717;46.924;15.474;2023-04-30T11:17:12;98026.56;;;19.25;49.59
27202;BME280;14717;46.924;15.474;2023-04-30T11:19:51;98023.31;;;19.23;50.16
27202;BME280;14717;46.924;15.474;2023-04-30T11:22:21;98015.22;;;19.42;50.65
27202;BME280;14717;46.924;15.474;2023-04-30T11:24:52;98015.09;;;19.95;49.61
27202;BME280;14717;46.924;15.474;2023-04-30T11:27:23;98022.75;;;19.74;48.23
27202;BME280;14717;46.924;15.474;2023-04-30T11:29:49;98023.28;;;19.88;47.71
27202;BME280;14717;46.924;15.474;2023-04-30T11:32:17;98021.13;;;19.73;46.25
27202;BME280;14717;46.924;15.474;2023-04-30T11:34:43;98002.84;;;19.99;45.95
27202;BME280;14717;46.924;15.474;2023-04-30T11:37:17;98012.06;;;19.88;45.60
27202;BME280;14717;46.924;15.474;2023-04-30T11:39:42;98005.28;;;20.12;45.42
27202;BME280;14717;46.924;15.474;2023-04-30T11:42:08;98008.31;;;19.96;44.39
27202;BME280;14717;46.924;15.474;2023-04-30T11:44:34;98002.00;;;20.58;45.58
27202;BME280;14717;46.924;15.474;2023-04-30T11:47:00;97992.97;;;20.76;43.10
27202;BME280;14717;46.924;15.474;2023-04-30T11:49:26;98003.88;;;20.66;43.96
27202;BME280;14717;46.924;15.474;2023-04-30T11:51:52;98001.22;;;20.10;44.79
27202;BME280;14717;46.924;15.474;2023-04-30T11:54:17;98012.66;;;19.93;47.57
27202;BME280;14717;46.924;15.474;2023-04-30T11:56:47;98014.41;;;19.54;46.71
27202;BME280;14717;46.924;15.474;2023-04-30T11:59:13;98014.13;;;19.79;44.99
27202;BME280;14717;46.924;15.474;2023-04-30T12:01:39;98011.53;;;19.62;45.16
27202;BME280;14717;46.924;15.474;2023-04-30T12:04:05;98010.97;;;19.80;44.80
27202;BME280;14717;46.924;15.474;2023-04-30T12:06:31;98007.88;;;19.94;44.71
27202;BME280;14717;46.924;15.474;2023-04-30T12:08:58;98004.81;;;19.99;45.83
27202;BME280;14717;46.924;15.474;2023-04-30T12:11:27;98009.09;;;19.72;44.68
27202;BME280;14717;46.924;15.474;2023-04-30T12:14:08;98006.94;;;19.58;45.22
27202;BME280;14717;46.924;15.474;2023-04-30T12:19:08;98002.66;;;19.28;44.42
27202;BME280;14717;46.924;15.474;2023-04-30T12:21:34;98003.56;;;19.52;46.25
27202;BME280;14717;46.924;15.474;2023-04-30T12:24:00;97997.16;;;19.63;48.29
27202;BME280;14717;46.924;15.474;2023-04-30T12:26:37;97990.81;;;19.55;45.43
27202;BME280;14717;46.924;15.474;2023-04-30T12:29:13;97993.75;;;19.70;48.51
27202;BME280;14717;46.924;15.474;2023-04-30T12:31:41;97989.56;;;19.20;45.56
27202;BME280;14717;46.924;15.474;2023-04-30T12:34:09;97983.19;;;19.43;44.59
27202;BME280;14717;46.924;15.474;2023-04-30T12:36:35;97976.88;;;19.34;46.13
27202;BME280;14717;46.924;15.474;2023-04-30T12:39:09;97983.22;;;19.55;46.14
27202;BME280;14717;46.924;15.474;2023-04-30T12:41:40;97973.88;;;19.51;46.44
27202;BME280;14717;46.924;15.474;2023-04-30T12:44:32;97970.97;;;19.60;45.52
27202;BME280;14717;46.924;15.474;2023-04-30T12:47:07;97979.34;;;19.92;43.89
27202;BME280;14717;46.924;15.474;2023-04-30T12:49:37;97967.44;;;20.07;45.01
27202;BME280;14717;46.924;15.474;2023-04-30T12:52:10;97974.66;;;19.84;44.00
27202;BME280;14717;46.924;15.474;2023-04-30T12:54:37;97967.44;;;20.07;45.11
27202;BME280;14717;46.924;15.474;2023-04-30T12:57:05;97967.44;;;20.07;43.27
27202;BME280;14717;46.924;15.474;2023-04-30T12:59:38;97977.00;;;20.17;44.36
27202;BME280;14717;46.924;15.474;2023-04-30T13:02:13;97966.69;;;19.74;43.86
27202;BME280;14717;46.924;15.474;2023-04-30T13:05:04;97962.47;;;19.80;43.41